This is the latest recevied weather packets stored in our database for station/object WC4PEM-10. If no packets are shown the sender has not sent any weather packets the latest 10 day(s).
| Time | Temp. | Humidity | Pressure | Rain* | Wind** | Luminosity | Snow |
|---|---|---|---|---|---|---|---|
| 1777560228 | 24.44° C | 88% | 1012.3 hPa | 0 mm | - | - | - |
| 1777560103 | 24.44° C | 88% | 1012.3 hPa | 0 mm | - | - | - |
| 1777559932 | 23.89° C | 91% | 1012.2 hPa | 0 mm | - | - | - |
| 1777559803 | 23.89° C | 91% | 1012.2 hPa | 0 mm | - | - | - |
| 1777559777 | 23.89° C | 91% | 1012.2 hPa | 0 mm | - | - | - |
| 1777559517 | 23.33° C | 90% | 1012.2 hPa | 0 mm | - | - | - |
| 1777559503 | 23.89° C | 91% | 1012.2 hPa | 0 mm | - | - | - |
| 1777559203 | 23.33° C | 90% | 1012.2 hPa | 0 mm | - | - | - |
| 1777559177 | 23.89° C | 90% | 1012.3 hPa | 0 mm | - | - | - |
| 1777559111 | 23.89° C | 90% | 1012.3 hPa | 0 mm | - | - | - |
| 1777558903 | 23.89° C | 90% | 1012.3 hPa | 0 mm | - | - | - |
| 1777558743 | 22.78° C | 94% | 1012.8 hPa | 0 mm | - | - | - |
| 1777558603 | 23.89° C | 90% | 1012.3 hPa | 0 mm | - | - | - |
| 1777558440 | 23.89° C | 90% | 1012.3 hPa | 0 mm | - | - | - |
| 1777558303 | 23.89° C | 90% | 1012.3 hPa | 0 mm | - | - | - |
| 1777558128 | 23.89° C | 91% | 1012.4 hPa | 0 mm | - | - | - |
| 1777558003 | 23.89° C | 91% | 1012.4 hPa | 0 mm | - | - | - |
| 1777557971 | 23.33° C | 92% | 1012.5 hPa | 0 mm | - | - | - |
| 1777557703 | 23.33° C | 92% | 1012.5 hPa | 0 mm | - | - | - |
| 1777557403 | 23.33° C | 93% | 1012.4 hPa | 0 mm | - | - | - |
| 1777557283 | 22.78° C | 93% | 1012.7 hPa | 0 mm | - | - | - |
| 1777557103 | 22.78° C | 93% | 1012.7 hPa | 0 mm | - | - | - |
| 1777556978 | 22.78° C | 94% | 1012.8 hPa | 0 mm | - | - | - |
| 1777556803 | 22.78° C | 94% | 1012.8 hPa | 0 mm | - | - | - |
| 1777556727 | 22.22° C | 95% | 1012.8 hPa | 0 mm | - | - | - |
* Rain latest hour (hover to see other rain measurements)
** Current wind speed in m/s (hover to see current wind gust speed)